createdAt,value
2018-01-07T00:24:31.393Z,29.40
2018-01-07T00:27:02.476Z,29.50
2018-01-07T00:29:36.745Z,29.40
2018-01-07T00:32:06.118Z,29.40
2018-01-07T00:34:54.739Z,29.20
2018-01-07T00:37:24.445Z,29.10
2018-01-07T00:40:14.268Z,29.10
2018-01-07T00:43:00.570Z,29.20
2018-01-07T00:45:36.365Z,29.40
2018-01-07T00:48:11.184Z,29.30
2018-01-07T00:50:42.127Z,29.30
2018-01-07T00:56:05.669Z,29.30
2018-01-07T00:58:34.688Z,29.20
2018-01-07T01:12:51.872Z,29.40
2018-01-07T01:15:20.876Z,29.30
2018-01-07T01:17:49.114Z,29.30
2018-01-07T01:20:17.305Z,29.30
2018-01-07T01:22:45.531Z,29.20
2018-01-07T01:25:14.482Z,28.90
2018-01-07T01:27:42.706Z,28.90
2018-01-07T01:30:10.928Z,29.00
2018-01-07T01:32:39.133Z,29.00
2018-01-07T01:35:07.397Z,29.00
2018-01-07T01:37:35.611Z,28.90
2018-01-07T01:40:03.821Z,28.70
2018-01-07T01:42:32.022Z,28.70
2018-01-07T01:45:00.228Z,28.90
2018-01-07T01:47:28.409Z,28.90
2018-01-07T01:49:56.753Z,28.70
2018-01-07T01:52:24.937Z,28.80
2018-01-07T01:54:54.573Z,28.60
2018-01-07T01:57:22.765Z,28.60
2018-01-07T01:59:51.841Z,28.60
2018-01-07T02:02:20.040Z,28.50
2018-01-07T02:04:48.266Z,28.40
2018-01-07T02:07:17.230Z,28.40
2018-01-07T02:09:45.443Z,28.40
2018-01-07T02:12:13.704Z,28.40
2018-01-07T02:14:43.737Z,28.50
2018-01-07T02:17:12.941Z,28.50
2018-01-07T02:19:41.886Z,28.20
2018-01-07T02:22:10.158Z,28.20
2018-01-07T02:24:38.334Z,28.20
2018-01-07T02:27:06.512Z,28.40
2018-01-07T02:29:35.467Z,28.10
2018-01-07T02:32:03.693Z,28.10
2018-01-07T02:34:32.652Z,28.00
2018-01-07T02:37:00.855Z,28.00
2018-01-07T02:39:29.842Z,28.10
2018-01-07T02:41:58.811Z,28.00
2018-01-07T02:44:27.043Z,27.90
2018-01-07T02:46:55.365Z,28.00
2018-01-07T02:49:23.553Z,28.00
2018-01-07T02:51:51.738Z,27.80
2018-01-07T02:54:20.751Z,28.00
2018-01-07T02:56:48.972Z,27.90
2018-01-07T02:59:17.223Z,27.80
2018-01-07T03:01:45.475Z,27.70
2018-01-07T03:04:13.674Z,28.00
2018-01-07T03:06:41.862Z,27.90
2018-01-07T03:09:10.075Z,27.90
2018-01-07T03:11:39.020Z,27.80
2018-01-07T03:14:07.267Z,27.80
2018-01-07T03:16:35.444Z,27.70
2018-01-07T03:19:03.631Z,27.90
2018-01-07T03:21:31.841Z,27.80
2018-01-07T03:24:00.813Z,27.70
2018-01-07T03:26:28.988Z,27.70
2018-01-07T03:28:57.171Z,28.00
2018-01-07T03:31:25.348Z,27.80
2018-01-07T03:33:53.540Z,27.80
2018-01-07T03:36:22.642Z,27.80
2018-01-07T03:38:51.679Z,27.90
2018-01-07T03:41:19.874Z,27.80
2018-01-07T03:43:48.059Z,27.80
2018-01-07T03:46:16.244Z,27.80
2018-01-07T03:48:45.190Z,27.80
2018-01-07T03:51:13.387Z,27.70
2018-01-07T03:53:41.582Z,27.70
2018-01-07T03:56:10.529Z,28.30
2018-01-07T03:58:38.790Z,27.70
2018-01-07T04:01:07.007Z,27.80
2018-01-07T04:03:35.187Z,27.90
2018-01-07T04:06:03.369Z,27.70
2018-01-07T04:08:31.542Z,27.70
2018-01-07T04:10:59.783Z,27.70
2018-01-07T04:13:27.987Z,27.70
2018-01-07T04:15:56.187Z,27.90
2018-01-07T04:18:24.389Z,27.70
2018-01-07T04:20:52.615Z,27.90
2018-01-07T04:23:20.927Z,27.90
2018-01-07T04:25:49.258Z,27.70
2018-01-07T04:28:17.462Z,27.80
2018-01-07T04:30:46.427Z,27.70
2018-01-07T04:33:14.620Z,27.70
2018-01-07T04:35:43.656Z,27.80
2018-01-07T04:38:11.841Z,27.80
2018-01-07T04:40:40.031Z,27.90
2018-01-07T04:43:08.215Z,27.80
2018-01-07T04:45:36.395Z,27.80
2018-01-07T04:48:04.599Z,27.80
2018-01-07T04:50:32.815Z,27.70
2018-01-07T04:53:01.101Z,27.70
2018-01-07T04:55:29.280Z,27.70
2018-01-07T04:57:57.475Z,27.70
2018-01-07T05:00:26.415Z,27.60
2018-01-07T05:02:54.696Z,27.60
2018-01-07T05:05:22.886Z,27.80
2018-01-07T05:07:51.095Z,27.70
2018-01-07T05:10:20.141Z,27.60
2018-01-07T05:12:48.324Z,27.60
2018-01-07T05:15:16.553Z,27.50
2018-01-07T05:17:44.746Z,27.60
2018-01-07T05:20:12.937Z,27.50
2018-01-07T05:22:41.119Z,27.40
2018-01-07T05:25:09.369Z,27.50
2018-01-07T05:27:37.628Z,27.50
2018-01-07T05:30:05.818Z,27.60
2018-01-07T05:32:34.042Z,27.60
2018-01-07T05:35:02.230Z,27.60
2018-01-07T05:37:31.191Z,27.50
2018-01-07T05:39:59.436Z,27.40
2018-01-07T05:42:27.617Z,27.50
2018-01-07T05:44:55.833Z,27.50
2018-01-07T05:47:24.128Z,27.50
2018-01-07T05:49:53.113Z,27.60
2018-01-07T05:52:22.240Z,27.50
2018-01-07T05:54:50.508Z,27.50
2018-01-07T05:57:18.738Z,27.60
2018-01-07T05:59:47.080Z,27.60
2018-01-07T06:02:16.048Z,27.60
2018-01-07T06:04:44.252Z,27.60
2018-01-07T06:07:12.555Z,27.60
2018-01-07T06:09:40.766Z,27.50
2018-01-07T06:12:08.977Z,27.40
2018-01-07T06:14:37.164Z,27.20
2018-01-07T06:17:05.357Z,27.30
2018-01-07T06:19:33.606Z,27.20
2018-01-07T06:22:01.812Z,27.30
2018-01-07T06:24:30.766Z,27.00
2018-01-07T06:26:58.949Z,27.00
2018-01-07T06:29:27.122Z,27.00
2018-01-07T06:31:55.326Z,26.90
2018-01-07T06:34:24.386Z,27.00
2018-01-07T06:36:52.835Z,27.00
2018-01-07T06:39:21.056Z,27.00
2018-01-07T06:41:49.419Z,27.00
2018-01-07T06:44:17.621Z,27.00
2018-01-07T06:46:45.955Z,27.00
2018-01-07T06:49:14.155Z,26.80
2018-01-07T06:51:42.348Z,27.10
2018-01-07T06:54:10.562Z,27.00
2018-01-07T06:56:38.801Z,26.90
2018-01-07T06:59:07.777Z,26.90
2018-01-07T07:01:35.988Z,26.90
2018-01-07T07:04:04.176Z,26.90
2018-01-07T07:06:32.378Z,26.80
2018-01-07T07:09:00.591Z,26.80
2018-01-07T07:11:29.552Z,26.90
2018-01-07T07:13:57.763Z,26.90
2018-01-07T07:16:26.733Z,26.90
2018-01-07T07:18:55.080Z,26.80
2018-01-07T07:21:23.328Z,26.80
2018-01-07T07:23:51.517Z,26.80
2018-01-07T07:26:19.717Z,26.70
2018-01-07T07:28:47.994Z,26.80
2018-01-07T07:31:16.257Z,26.80
2018-01-07T07:33:44.478Z,26.80
2018-01-07T07:36:12.678Z,26.70
2018-01-07T07:38:40.923Z,26.70
2018-01-07T07:41:09.873Z,26.70
2018-01-07T07:43:38.095Z,26.70
2018-01-07T07:46:06.299Z,26.60
2018-01-07T07:48:34.490Z,26.70
2018-01-07T07:51:02.685Z,26.60
2018-01-07T07:53:30.901Z,26.40
2018-01-07T07:55:59.087Z,26.50
2018-01-07T07:58:27.333Z,26.60
2018-01-07T08:00:56.298Z,26.70
2018-01-07T08:03:24.587Z,26.70
2018-01-07T08:05:53.569Z,26.60
2018-01-07T08:08:21.797Z,26.50
2018-01-07T08:10:50.750Z,26.60
2018-01-07T08:13:18.983Z,26.60
2018-01-07T08:15:47.161Z,26.60
2018-01-07T08:18:15.409Z,26.60
2018-01-07T08:20:44.425Z,26.80
2018-01-07T08:23:12.633Z,26.70
2018-01-07T08:25:40.849Z,26.70
2018-01-07T08:28:09.060Z,26.70
2018-01-07T08:30:37.278Z,26.80
2018-01-07T08:33:05.499Z,26.90
2018-01-07T08:35:33.751Z,26.90
2018-01-07T08:38:02.832Z,27.00
2018-01-07T08:40:31.024Z,27.00
2018-01-07T08:42:59.239Z,27.00
2018-01-07T08:45:27.439Z,27.00
2018-01-07T08:47:55.680Z,27.00
2018-01-07T08:50:23.920Z,26.90
2018-01-07T08:52:52.144Z,26.80
2018-01-07T08:55:21.129Z,26.70
2018-01-07T08:57:50.156Z,26.70
2018-01-07T09:00:18.394Z,26.70
2018-01-07T09:02:47.447Z,26.70
2018-01-07T09:05:15.636Z,26.70
2018-01-07T09:07:43.827Z,26.70
2018-01-07T09:10:12.053Z,26.80
2018-01-07T09:12:40.245Z,26.80
2018-01-07T09:15:08.494Z,26.80
2018-01-07T09:17:36.718Z,26.80
2018-01-07T09:20:05.021Z,26.80
2018-01-07T09:22:34.126Z,26.90
2018-01-07T09:25:02.387Z,26.90
2018-01-07T09:27:31.349Z,26.90
2018-01-07T09:29:59.554Z,26.90
2018-01-07T09:32:28.528Z,27.00
2018-01-07T09:34:56.753Z,27.00
2018-01-07T09:37:24.988Z,26.90
2018-01-07T09:39:54.633Z,27.00
2018-01-07T09:42:22.849Z,27.00
2018-01-07T09:44:51.109Z,27.00
2018-01-07T09:47:19.350Z,27.00
2018-01-07T09:49:47.583Z,27.00
2018-01-07T09:52:16.927Z,27.00
2018-01-07T09:57:19.522Z,27.00
2018-01-07T09:59:47.719Z,27.00
2018-01-07T10:02:15.972Z,27.00
2018-01-07T10:04:44.172Z,26.90
2018-01-07T10:07:12.379Z,26.90
2018-01-07T10:09:41.362Z,27.00
2018-01-07T10:12:10.408Z,27.20
2018-01-07T10:14:38.641Z,27.10
2018-01-07T10:17:07.683Z,27.20
2018-01-07T10:19:35.908Z,27.10
2018-01-07T10:22:06.265Z,27.10
2018-01-07T10:24:35.210Z,27.10
2018-01-07T10:27:04.343Z,26.90
2018-01-07T10:29:32.603Z,26.80
2018-01-07T10:32:00.887Z,26.80
2018-01-07T10:34:29.175Z,26.90
2018-01-07T10:36:57.574Z,26.90
2018-01-07T10:39:25.905Z,27.00
2018-01-07T10:41:55.110Z,26.80
2018-01-07T10:44:23.630Z,26.70
2018-01-07T10:46:51.951Z,26.80
2018-01-07T10:49:20.304Z,26.80
2018-01-07T10:51:48.564Z,26.80
2018-01-07T10:54:16.840Z,26.90
2018-01-07T10:56:45.093Z,26.90
2018-01-07T10:59:13.494Z,27.00
2018-01-07T11:01:47.534Z,27.00
2018-01-07T11:04:16.884Z,27.10
2018-01-07T11:06:45.265Z,27.10
2018-01-07T11:09:13.574Z,27.20
2018-01-07T11:11:42.632Z,27.00
2018-01-07T11:14:12.499Z,27.00
2018-01-07T11:16:40.791Z,27.10
2018-01-07T11:19:09.171Z,27.10
2018-01-07T11:21:37.469Z,27.20
2018-01-07T11:27:23.504Z,27.20
2018-01-07T11:30:04.931Z,27.70
2018-01-07T11:32:33.325Z,27.30
2018-01-07T11:35:01.572Z,27.30
2018-01-07T11:37:29.811Z,27.30
2018-01-07T11:39:58.167Z,27.20
2018-01-07T11:42:28.611Z,27.20
2018-01-07T11:44:57.119Z,27.10
2018-01-07T11:47:32.796Z,27.10
2018-01-07T11:50:01.117Z,27.00
2018-01-07T11:52:29.390Z,27.00
2018-01-07T11:55:03.886Z,27.10
2018-01-07T11:57:36.568Z,27.30
2018-01-07T12:00:04.949Z,27.30
2018-01-07T12:02:33.274Z,27.40
2018-01-07T12:05:02.436Z,27.90
2018-01-07T12:07:30.690Z,27.40
2018-01-07T12:09:58.934Z,27.40
2018-01-07T12:12:27.292Z,27.40
2018-01-07T12:14:55.549Z,27.30
2018-01-07T12:17:25.120Z,27.30
2018-01-07T12:19:53.428Z,27.30
2018-01-07T12:25:24.739Z,27.20
2018-01-07T12:27:56.292Z,27.20
2018-01-07T12:44:58.652Z,27.10
2018-01-07T12:47:31.725Z,27.30
2018-01-07T12:50:00.342Z,27.20
2018-01-07T12:53:02.171Z,27.20
2018-01-07T12:55:32.494Z,27.20
2018-01-07T12:58:01.518Z,27.10
2018-01-07T13:00:32.083Z,27.00
2018-01-07T13:06:14.665Z,26.80
2018-01-07T13:08:43.849Z,27.10
2018-01-07T13:11:14.071Z,27.00
2018-01-07T13:13:42.562Z,27.00
2018-01-07T13:16:10.933Z,27.00
2018-01-07T13:18:39.245Z,27.00
2018-01-07T13:21:08.306Z,27.10
2018-01-07T13:23:36.753Z,26.90
2018-01-07T13:26:05.105Z,26.60
2018-01-07T13:28:33.435Z,26.70
2018-01-07T13:31:03.503Z,26.90
2018-01-07T13:33:32.117Z,26.80
2018-01-07T13:36:00.622Z,26.70
2018-01-07T13:38:28.868Z,26.70
2018-01-07T13:40:58.035Z,26.40
2018-01-07T13:43:28.635Z,26.50
2018-01-07T13:45:59.031Z,26.60
2018-01-07T13:48:28.071Z,26.70
2018-01-07T13:50:56.460Z,26.70
2018-01-07T13:53:31.634Z,26.50
2018-01-07T13:56:00.125Z,26.60
2018-01-07T13:58:31.842Z,26.60
2018-01-07T14:01:11.106Z,26.60
2018-01-07T14:03:39.499Z,26.60
2018-01-07T14:06:07.942Z,26.60
2018-01-07T14:08:41.366Z,26.40
2018-01-07T14:11:09.699Z,26.40
2018-01-07T14:16:58.056Z,26.50
2018-01-07T14:19:26.281Z,26.60
2018-01-07T14:21:54.478Z,26.60
2018-01-07T14:24:22.723Z,26.60
2018-01-07T14:26:50.975Z,26.50
2018-01-07T14:29:19.195Z,26.50
2018-01-07T14:31:47.405Z,26.60
2018-01-07T14:34:15.598Z,26.70
2018-01-07T14:36:43.849Z,26.50
2018-01-07T14:39:13.947Z,26.60
2018-01-07T14:42:20.103Z,26.60
2018-01-07T14:44:56.293Z,26.60
2018-01-07T14:47:27.970Z,26.60
2018-01-07T14:49:59.244Z,26.60
2018-01-07T14:52:41.125Z,26.60
2018-01-07T14:55:18.669Z,26.70
2018-01-07T14:57:54.676Z,26.70
2018-01-07T15:00:35.144Z,26.70
2018-01-07T15:03:26.853Z,26.80
2018-01-07T15:05:55.335Z,26.80
2018-01-07T15:08:23.652Z,26.70
2018-01-07T15:10:51.992Z,26.60
2018-01-07T15:13:20.308Z,26.60
2018-01-07T15:15:48.653Z,26.60
2018-01-07T15:18:17.021Z,26.70
2018-01-07T15:20:45.612Z,26.80
2018-01-07T15:23:13.985Z,26.90
2018-01-07T15:25:42.344Z,26.90
2018-01-07T15:28:11.236Z,27.00
2018-01-07T15:30:39.776Z,27.00
2018-01-07T15:33:09.251Z,27.00
2018-01-07T15:35:37.629Z,27.10
2018-01-07T15:38:06.160Z,27.00
2018-01-07T15:40:34.590Z,27.10
2018-01-07T15:43:03.632Z,27.10
2018-01-07T15:45:32.024Z,27.10
2018-01-07T15:48:01.401Z,27.10
2018-01-07T15:50:30.897Z,27.10
2018-01-07T15:52:59.371Z,27.20
2018-01-07T15:55:28.022Z,27.10
2018-01-07T15:57:56.476Z,27.20
2018-01-07T16:00:24.870Z,27.20
2018-01-07T16:02:53.176Z,27.30
2018-01-07T16:05:21.644Z,27.30
2018-01-07T16:10:24.626Z,27.20
2018-01-07T16:12:53.772Z,27.20
2018-01-07T16:15:22.966Z,27.20
2018-01-07T16:17:51.293Z,27.10
2018-01-07T16:20:19.592Z,27.20
2018-01-07T16:22:48.006Z,27.20
2018-01-07T16:25:16.334Z,27.20
2018-01-07T16:27:45.210Z,27.20
2018-01-07T16:30:14.247Z,27.20
2018-01-07T16:32:42.575Z,27.20
2018-01-07T16:35:10.905Z,27.20
2018-01-07T16:37:39.166Z,27.10
2018-01-07T16:40:07.492Z,27.10
2018-01-07T16:42:36.476Z,27.20
2018-01-07T16:45:04.700Z,27.10
2018-01-07T16:47:32.972Z,27.00
2018-01-07T16:50:01.260Z,27.10
2018-01-07T16:52:32.704Z,27.10
2018-01-07T16:55:02.372Z,27.10
2018-01-07T16:57:30.684Z,27.00
2018-01-07T16:59:58.993Z,27.00
2018-01-07T17:02:27.230Z,27.00
2018-01-07T17:04:55.437Z,27.00
2018-01-07T17:07:23.685Z,27.10
2018-01-07T17:09:51.960Z,27.00
2018-01-07T17:12:20.187Z,27.10
2018-01-07T17:14:48.415Z,27.10
2018-01-07T17:17:16.615Z,27.10
2018-01-07T17:19:44.813Z,27.50
2018-01-07T17:22:16.499Z,27.00
2018-01-07T17:25:16.862Z,27.00
2018-01-07T17:27:50.561Z,27.00
2018-01-07T17:30:26.453Z,27.00
2018-01-07T17:32:54.862Z,27.00
2018-01-07T17:35:24.153Z,27.00
2018-01-07T17:37:52.645Z,27.00
2018-01-07T17:40:21.680Z,27.60
2018-01-07T17:42:50.162Z,27.00
2018-01-07T17:45:18.399Z,27.00
2018-01-07T17:47:46.640Z,27.00
2018-01-07T17:50:15.688Z,27.10
2018-01-07T17:52:43.969Z,27.00
2018-01-07T17:55:12.113Z,27.00
2018-01-07T17:57:40.369Z,27.00
2018-01-07T18:00:08.619Z,27.00
2018-01-07T18:02:36.857Z,26.90
2018-01-07T18:05:05.061Z,26.90
2018-01-07T18:07:33.278Z,26.90
2018-01-07T18:10:01.477Z,26.90
2018-01-07T18:12:29.728Z,26.90
2018-01-07T18:14:58.070Z,26.80
2018-01-07T18:17:26.333Z,26.80
2018-01-07T18:19:54.532Z,26.90
2018-01-07T18:22:22.734Z,26.80
2018-01-07T18:24:50.952Z,26.90
2018-01-07T18:27:19.173Z,26.80
2018-01-07T18:29:47.392Z,26.90
2018-01-07T18:32:15.604Z,26.80
2018-01-07T18:34:44.571Z,26.80
2018-01-07T18:37:12.751Z,26.70
2018-01-07T18:39:41.043Z,26.70
2018-01-07T18:42:09.256Z,26.70
2018-01-07T18:44:37.500Z,26.70
2018-01-07T18:47:06.352Z,26.60
2018-01-07T18:49:34.656Z,26.60
2018-01-07T18:52:03.691Z,26.60
2018-01-07T18:54:31.871Z,26.60
2018-01-07T18:57:00.125Z,26.50
2018-01-07T18:59:28.351Z,26.40
2018-01-07T19:01:56.867Z,26.40
2018-01-07T19:04:25.830Z,26.40
2018-01-07T19:06:54.060Z,26.40
2018-01-07T19:09:22.267Z,26.40
2018-01-07T19:11:50.613Z,26.40
2018-01-07T19:14:18.966Z,26.30
2018-01-07T19:16:47.251Z,26.30
2018-01-07T19:19:16.749Z,26.30
2018-01-07T19:21:44.989Z,26.20
2018-01-07T19:24:14.011Z,26.10
2018-01-07T19:26:42.278Z,26.10
2018-01-07T19:29:10.576Z,26.10
2018-01-07T19:31:39.469Z,26.00
2018-01-07T19:34:07.736Z,25.90
2018-01-07T19:36:36.028Z,25.90
2018-01-07T19:39:04.227Z,25.90
2018-01-07T19:41:32.586Z,25.90
2018-01-07T19:44:00.800Z,26.00
2018-01-07T19:46:29.106Z,25.90
2018-01-07T19:48:57.344Z,26.00
2018-01-07T19:51:25.593Z,26.00
2018-01-07T19:53:53.915Z,25.70
2018-01-07T19:56:22.783Z,25.80
2018-01-07T19:58:51.076Z,25.60
2018-01-07T20:01:19.346Z,25.60
2018-01-07T20:03:47.644Z,25.70
2018-01-07T20:06:15.872Z,25.70
2018-01-07T20:08:45.172Z,25.70
2018-01-07T20:11:13.545Z,25.60
2018-01-07T20:13:41.897Z,25.70
2018-01-07T20:16:10.235Z,25.60
2018-01-07T20:18:38.624Z,25.60
2018-01-07T20:21:07.013Z,25.70
2018-01-07T20:23:35.326Z,25.50
2018-01-07T20:26:03.595Z,25.50
2018-01-07T20:28:31.902Z,25.40
2018-01-07T20:31:01.246Z,25.60
2018-01-07T20:33:29.631Z,25.50
2018-01-07T20:35:57.953Z,25.40
2018-01-07T20:38:27.077Z,25.30
2018-01-07T20:40:55.564Z,25.30
2018-01-07T20:43:34.528Z,25.30
2018-01-07T20:46:10.333Z,25.30
2018-01-07T20:48:49.193Z,25.20
2018-01-07T20:54:12.735Z,25.10
2018-01-07T20:56:44.705Z,25.20
2018-01-07T21:02:03.135Z,25.10
2018-01-07T21:07:55.711Z,25.00
2018-01-07T21:11:01.794Z,25.00
2018-01-07T21:16:35.116Z,25.20
2018-01-07T21:19:21.240Z,25.10
2018-01-07T21:24:35.904Z,25.20
2018-01-07T21:27:04.893Z,25.20
2018-01-07T21:29:48.550Z,25.10
2018-01-07T21:32:32.267Z,25.20
2018-01-07T21:35:02.924Z,25.10
2018-01-07T21:37:31.465Z,25.20
2018-01-07T21:39:59.824Z,25.20
2018-01-07T21:42:28.111Z,25.50
2018-01-07T21:44:56.636Z,25.10
2018-01-07T21:47:25.091Z,25.10
2018-01-07T21:49:53.850Z,25.10
2018-01-07T21:52:22.156Z,25.10
2018-01-07T21:54:50.432Z,25.10
2018-01-07T21:57:18.662Z,25.10
2018-01-07T22:00:04.605Z,25.00
2018-01-07T22:02:50.536Z,25.00
2018-01-07T22:05:19.498Z,25.00
2018-01-07T22:07:47.743Z,25.00
2018-01-07T22:10:16.312Z,25.00
2018-01-07T22:12:44.546Z,25.00
2018-01-07T22:15:13.561Z,24.90
2018-01-07T22:17:41.789Z,24.90
2018-01-07T22:20:26.276Z,24.90
2018-01-07T22:22:59.226Z,24.90
2018-01-07T22:25:40.394Z,25.50
2018-01-07T22:28:09.163Z,25.10
2018-01-07T22:30:39.934Z,25.00
2018-01-07T22:33:08.179Z,25.10
2018-01-07T22:35:39.985Z,25.20
2018-01-07T22:38:09.013Z,25.10
2018-01-07T22:40:37.379Z,25.10
2018-01-07T22:43:05.707Z,25.10
2018-01-07T22:45:33.992Z,25.10
2018-01-07T22:48:07.638Z,25.10
2018-01-07T22:50:35.967Z,25.00
2018-01-07T22:53:04.171Z,25.00
2018-01-07T22:55:33.708Z,25.00
2018-01-07T22:58:01.931Z,25.00
2018-01-07T23:00:30.144Z,25.00
2018-01-07T23:02:58.335Z,25.00
2018-01-07T23:05:26.526Z,25.10
2018-01-07T23:07:54.718Z,25.10
2018-01-07T23:10:22.901Z,25.00
2018-01-07T23:12:51.134Z,25.10
2018-01-07T23:15:19.396Z,25.00
2018-01-07T23:17:47.683Z,24.90
2018-01-07T23:20:15.906Z,24.90
2018-01-07T23:22:45.186Z,24.90
2018-01-07T23:25:26.279Z,24.80
2018-01-07T23:27:55.789Z,24.80
2018-01-07T23:30:28.124Z,24.80
2018-01-07T23:35:45.621Z,24.90
2018-01-07T23:51:13.932Z,25.20
